Time,TemperatureF,DewpointF,PressureIn,WindDirection,WindDirectionDegrees,WindSpeedMPH,WindSpeedGustMPH,Humidity,HourlyPrecipIn,Conditions,Clouds,dailyrainin,SolarRadiationWatts/m^2,SoftwareType,DateUTC
2013-01-11 08:16:00,21.3,15.0,30.07,WNW,302,7.0,-999.0,75,-99.99,,,0.00,32,weatherlink.com 1.10,2013-01-11 16:16:00,
2013-01-11 08:21:00,20.9,14.0,30.07,WNW,294,7.0,-999.0,74,-99.99,,,0.00,35,weatherlink.com 1.10,2013-01-11 16:21:00,
2013-01-11 08:36:00,21.1,14.0,30.08,WNW,291,8.0,-999.0,75,-99.99,,,0.00,100,weatherlink.com 1.10,2013-01-11 16:36:00,
2013-01-11 08:51:00,21.7,14.0,30.08,NW,304,9.0,-999.0,73,-99.99,,,0.00,207,weatherlink.com 1.10,2013-01-11 16:51:00,
2013-01-11 09:06:00,23.0,15.0,30.09,NW,311,9.0,-999.0,71,-99.99,,,0.00,151,weatherlink.com 1.10,2013-01-11 17:06:00,
2013-01-11 09:21:00,23.8,15.0,30.10,NW,308,7.0,-999.0,69,-99.99,,,0.00,93,weatherlink.com 1.10,2013-01-11 17:21:00,
2013-01-11 09:36:00,24.0,15.0,30.11,NW,324,7.0,-999.0,68,-99.99,,,0.00,104,weatherlink.com 1.10,2013-01-11 17:36:00,
2013-01-11 09:51:00,24.2,14.0,30.11,NW,322,10.0,-999.0,66,-99.99,,,0.00,107,weatherlink.com 1.10,2013-01-11 17:51:00,
2013-01-11 10:06:00,24.6,14.0,30.11,NW,313,5.0,-999.0,64,-99.99,,,0.00,156,weatherlink.com 1.10,2013-01-11 18:06:00,
2013-01-11 10:21:00,25.4,14.0,30.11,NNW,331,11.0,-999.0,61,-99.99,,,0.00,127,weatherlink.com 1.10,2013-01-11 18:21:00,
2013-01-11 10:36:00,25.7,13.0,30.12,NW,309,9.0,-999.0,59,-99.99,,,0.00,204,weatherlink.com 1.10,2013-01-11 18:36:00,
2013-01-11 10:51:00,26.3,13.0,30.11,NW,315,3.0,-999.0,57,-99.99,,,0.00,585,weatherlink.com 1.10,2013-01-11 18:51:00,
2013-01-11 11:07:00,27.2,12.0,30.12,NW,325,7.0,-999.0,53,-99.99,,,0.00,515,weatherlink.com 1.10,2013-01-11 19:07:00,
2013-01-11 11:21:00,26.8,12.0,30.12,NNW,327,10.0,-999.0,54,-99.99,,,0.00,582,weatherlink.com 1.10,2013-01-11 19:21:00,
2013-01-11 11:36:00,27.6,12.0,30.12,North,5,6.0,-999.0,53,-99.99,,,0.00,318,weatherlink.com 1.10,2013-01-11 19:36:00,
2013-01-11 11:51:00,27.4,13.0,30.12,NNW,337,7.0,-999.0,55,-99.99,,,0.00,149,weatherlink.com 1.10,2013-01-11 19:51:00,
2013-01-11 12:06:00,27.4,13.0,30.11,NW,315,7.0,-999.0,55,-99.99,,,0.00,374,weatherlink.com 1.10,2013-01-11 20:06:00,
2013-01-11 12:21:00,27.2,13.0,30.12,North,355,6.0,-999.0,56,-99.99,,,0.00,165,weatherlink.com 1.10,2013-01-11 20:21:00,
2013-01-11 12:36:00,26.7,14.0,30.12,NE,34,5.0,-999.0,60,-99.99,,,0.00,178,weatherlink.com 1.10,2013-01-11 20:36:00,
2013-01-11 14:49:00,28.9,14.0,30.16,NE,48,8.0,-999.0,55,-99.99,,,0.00,294,weatherlink.com 1.10,2013-01-11 22:49:00,
2013-01-11 15:06:00,28.1,17.0,30.16,NE,34,2.0,-999.0,63,-99.99,,,0.00,214,weatherlink.com 1.10,2013-01-11 23:06:00,
2013-01-11 15:21:00,27.0,16.0,30.17,NE,43,4.0,-999.0,63,-99.99,,,0.00,35,weatherlink.com 1.10,2013-01-11 23:21:00,
2013-01-11 15:36:00,26.0,15.0,30.17,NE,43,0.0,-999.0,64,-99.99,,,0.00,40,weatherlink.com 1.10,2013-01-11 23:36:00,
2013-01-11 15:51:00,25.6,15.0,30.17,NNE,31,4.0,-999.0,64,-99.99,,,0.00,26,weatherlink.com 1.10,2013-01-11 23:51:00,
2013-01-11 16:06:00,25.5,15.0,30.18,NNE,30,1.0,-999.0,64,-99.99,,,0.00,25,weatherlink.com 1.10,2013-01-12 00:06:00,
2013-01-11 16:21:00,25.1,15.0,30.18,NNE,30,2.0,-999.0,65,-99.99,,,0.00,14,weatherlink.com 1.10,2013-01-12 00:21:00,
2013-01-11 16:36:00,24.7,16.0,30.19,NNE,24,3.0,-999.0,69,-99.99,,,0.00,9,weatherlink.com 1.10,2013-01-12 00:36:00,
2013-01-11 16:51:00,24.2,16.0,30.19,NNE,25,1.0,-999.0,70,-99.99,,,0.00,0,weatherlink.com 1.10,2013-01-12 00:51:00,
2013-01-11 17:06:00,23.6,16.0,30.19,NNE,23,0.0,-999.0,72,-99.99,,,0.00,0,weatherlink.com 1.10,2013-01-12 01:06:00,
2013-01-11 17:21:00,23.2,16.0,30.20,NNE,23,0.0,-999.0,73,-99.99,,,0.00,0,weatherlink.com 1.10,2013-01-12 01:21:00,
2013-01-11 17:36:00,22.8,16.0,30.20,NNE,23,0.0,-999.0,75,-99.99,,,0.00,0,weatherlink.com 1.10,2013-01-12 01:36:00,
2013-01-11 17:51:00,22.6,16.0,30.20,NNE,23,0.0,-999.0,76,-99.99,,,0.00,0,weatherlink.com 1.10,2013-01-12 01:51:00,
2013-01-11 18:06:00,22.4,16.0,30.20,NNE,23,0.0,-999.0,76,-99.99,,,0.00,0,weatherlink.com 1.10,2013-01-12 02:06:00,
2013-01-11 18:21:00,22.4,16.0,30.21,NNE,23,2.0,-999.0,76,-99.99,,,0.00,0,weatherlink.com 1.10,2013-01-12 02:21:00,
2013-01-11 18:51:00,22.5,16.0,30.21,NNE,23,3.0,-999.0,76,-99.99,,,0.00,0,weatherlink.com 1.10,2013-01-12 02:51:00,
2013-01-11 19:06:00,22.3,16.0,30.21,NNE,23,0.0,-999.0,77,-99.99,,,0.00,0,weatherlink.com 1.10,2013-01-12 03:06:00,
2013-01-11 19:21:00,22.4,16.0,30.22,NNE,23,0.0,-999.0,77,-99.99,,,0.00,0,weatherlink.com 1.10,2013-01-12 03:21:00,
2013-01-11 19:36:00,22.6,16.0,30.22,NNE,23,2.0,-999.0,77,-99.99,,,0.00,0,weatherlink.com 1.10,2013-01-12 03:36:00,
2013-01-11 19:51:00,22.5,16.0,30.22,NNE,23,3.0,-999.0,77,-99.99,,,0.00,0,weatherlink.com 1.10,2013-01-12 03:51:00,
2013-01-11 20:06:00,22.1,16.0,30.22,NNE,22,2.0,-999.0,78,-99.99,,,0.00,0,weatherlink.com 1.10,2013-01-12 04:06:00,
2013-01-11 20:21:00,21.7,16.0,30.21,North,5,3.0,-999.0,79,-99.99,,,0.00,0,weatherlink.com 1.10,2013-01-12 04:21:00,
2013-01-11 20:36:00,21.6,16.0,30.22,North,5,2.0,-999.0,78,-99.99,,,0.00,0,weatherlink.com 1.10,2013-01-12 04:36:00,
2013-01-11 20:51:00,21.2,15.0,30.22,NW,310,3.0,-999.0,77,-99.99,,,0.00,0,weatherlink.com 1.10,2013-01-12 04:51:00,
2013-01-11 21:06:00,20.4,14.0,30.22,WSW,250,3.0,-999.0,77,-99.99,,,0.00,0,weatherlink.com 1.10,2013-01-12 05:06:00,
2013-01-11 21:21:00,19.1,14.0,30.22,SW,218,3.0,-999.0,79,-99.99,,,0.00,0,weatherlink.com 1.10,2013-01-12 05:21:00,
2013-01-11 21:36:00,19.1,13.0,30.22,SSW,213,4.0,-999.0,76,-99.99,,,0.00,0,weatherlink.com 1.10,2013-01-12 05:36:00,
2013-01-11 21:51:00,18.8,12.0,30.21,SSW,208,5.0,-999.0,76,-99.99,,,0.00,0,weatherlink.com 1.10,2013-01-12 05:51:00,
2013-01-11 22:08:00,18.2,11.0,30.22,SSW,210,3.0,-999.0,74,-99.99,,,0.00,0,weatherlink.com 1.10,2013-01-12 06:08:00,
2013-01-11 22:21:00,17.9,11.0,30.21,SSW,211,4.0,-999.0,74,-99.99,,,0.00,0,weatherlink.com 1.10,2013-01-12 06:21:00,
2013-01-11 22:36:00,17.7,10.0,30.21,SSW,212,5.0,-999.0,73,-99.99,,,0.00,0,weatherlink.com 1.10,2013-01-12 06:36:00,
2013-01-11 22:51:00,17.8,10.0,30.20,SSW,212,4.0,-999.0,71,-99.99,,,0.00,0,weatherlink.com 1.10,2013-01-12 06:51:00,
2013-01-11 23:06:00,17.9,10.0,30.21,SSW,212,4.0,-999.0,70,-99.99,,,0.00,0,weatherlink.com 1.10,2013-01-12 07:06:00,
2013-01-11 23:21:00,18.0,9.0,30.21,SSW,212,3.0,-999.0,69,-99.99,,,0.00,0,weatherlink.com 1.10,2013-01-12 07:21:00,
2013-01-11 23:38:00,18.2,10.0,30.21,SSW,212,2.0,-999.0,69,-99.99,,,0.00,0,weatherlink.com 1.10,2013-01-12 07:38:00,
2013-01-11 23:51:00,18.2,10.0,30.21,SSW,212,4.0,-999.0,69,-99.99,,,0.00,0,weatherlink.com 1.10,2013-01-12 07:51:00,